createdAt,value
2018-03-03T00:01:09.377Z,98070.36
2018-03-03T00:03:39.367Z,98073.09
2018-03-03T00:06:09.184Z,98072.30
2018-03-03T00:08:38.951Z,98070.45
2018-03-03T00:11:08.996Z,98064.89
2018-03-03T00:13:41.741Z,98071.06
2018-03-03T00:16:14.104Z,98068.02
2018-03-03T00:18:45.571Z,98074.82
2018-03-03T00:21:15.479Z,98078.36
2018-03-03T00:23:45.478Z,98072.42
2018-03-03T00:26:14.945Z,98072.19
2018-03-03T00:28:47.396Z,98068.10
2018-03-03T00:31:17.087Z,98061.07
2018-03-03T00:33:46.744Z,98058.57
2018-03-03T00:36:16.883Z,98077.22
2018-03-03T00:38:46.514Z,98068.34
2018-03-03T00:41:16.546Z,98069.84
2018-03-03T00:43:46.206Z,98063.22
2018-03-03T00:46:15.592Z,98067.28
2018-03-03T00:48:45.360Z,98063.47
2018-03-03T00:51:15.865Z,98067.22
2018-03-03T00:53:45.693Z,98070.45
2018-03-03T00:56:15.481Z,98062.80
2018-03-03T00:58:45.265Z,98068.23
2018-03-03T01:01:14.734Z,98047.88
2018-03-03T01:03:45.094Z,98058.57
2018-03-03T01:06:15.134Z,98063.03
2018-03-03T01:08:45.185Z,98060.73
2018-03-03T01:11:15.803Z,98064.53
2018-03-03T01:13:45.210Z,98065.55
2018-03-03T01:16:14.996Z,98063.13
2018-03-03T01:18:44.951Z,98061.45
2018-03-03T01:21:14.681Z,98059.31
2018-03-03T01:23:44.429Z,98048.70
2018-03-03T01:26:14.191Z,98057.22
2018-03-03T01:28:44.030Z,98059.27
2018-03-03T01:31:16.067Z,98053.55
2018-03-03T01:33:46.332Z,98048.39
2018-03-03T01:36:16.167Z,98048.20
2018-03-03T01:38:46.544Z,98042.02
2018-03-03T01:41:15.970Z,98029.61
2018-03-03T01:43:45.587Z,98038.75
2018-03-03T01:46:15.483Z,98038.66
2018-03-03T01:48:46.450Z,98044.63
2018-03-03T01:51:24.570Z,98040.99
2018-03-03T01:53:54.373Z,98036.77
2018-03-03T01:56:25.751Z,98046.80
2018-03-03T01:58:55.804Z,98048.23
2018-03-03T02:01:27.514Z,98049.63
2018-03-03T02:03:59.549Z,98047.08
2018-03-03T02:06:29.572Z,98049.98
2018-03-03T02:09:01.456Z,98060.58
2018-03-03T02:11:39.517Z,98016.47
2018-03-03T02:14:11.315Z,98047.22
2018-03-03T02:16:41.882Z,98038.84
2018-03-03T02:19:13.816Z,98040.52
2018-03-03T02:21:43.741Z,98035.39
2018-03-03T02:24:14.925Z,98034.48
2018-03-03T02:26:44.806Z,98033.54
2018-03-03T02:29:14.647Z,98026.19
2018-03-03T02:31:45.361Z,98013.30
2018-03-03T02:34:15.442Z,98001.44
2018-03-03T02:36:45.327Z,98003.75
2018-03-03T02:39:15.293Z,98004.66
2018-03-03T02:41:45.062Z,98001.77
2018-03-03T02:44:14.848Z,98011.01
2018-03-03T02:46:44.664Z,98019.80
2018-03-03T02:49:14.358Z,98022.73
2018-03-03T02:51:44.058Z,98019.00
2018-03-03T02:54:13.888Z,98018.85
2018-03-03T02:56:43.803Z,98025.34
2018-03-03T02:59:13.956Z,98028.14
2018-03-03T03:01:43.632Z,98026.86
2018-03-03T03:04:13.877Z,98032.77
2018-03-03T03:06:43.838Z,98028.59
2018-03-03T03:09:13.748Z,98029.00
2018-03-03T03:11:43.569Z,98028.78
2018-03-03T03:14:14.177Z,98032.49
2018-03-03T03:16:44.128Z,98032.96
2018-03-03T03:19:13.960Z,98028.55
2018-03-03T03:21:44.321Z,98026.97
2018-03-03T03:24:14.081Z,98022.20
2018-03-03T03:26:45.137Z,98029.78
2018-03-03T03:29:16.357Z,98027.47
2018-03-03T03:31:46.757Z,98022.02
2018-03-03T03:34:17.170Z,98017.69
2018-03-03T03:36:47.324Z,98025.17
2018-03-03T03:39:17.509Z,98016.41
2018-03-03T03:41:47.083Z,98023.56
2018-03-03T03:44:16.988Z,98012.66
2018-03-03T03:46:47.246Z,98015.05
2018-03-03T03:49:17.042Z,98005.55
2018-03-03T03:51:47.021Z,97993.83
2018-03-03T03:54:17.172Z,97993.17
2018-03-03T03:56:46.795Z,98004.27
2018-03-03T03:59:16.718Z,98004.27
2018-03-03T04:01:47.627Z,97992.39
2018-03-03T04:04:17.333Z,97993.28
2018-03-03T04:06:47.608Z,97982.33
2018-03-03T04:09:17.610Z,97974.25
2018-03-03T04:11:50.256Z,97973.56
2018-03-03T04:14:19.936Z,97979.92
2018-03-03T04:16:49.642Z,97974.45
2018-03-03T04:19:19.762Z,97974.66
2018-03-03T04:21:50.227Z,97967.00
2018-03-03T04:24:20.034Z,97951.05
2018-03-03T04:26:50.105Z,97970.55
2018-03-03T04:29:20.108Z,97973.73
2018-03-03T04:31:49.922Z,97967.90
2018-03-03T04:34:19.857Z,97962.25
2018-03-03T04:36:50.233Z,97960.97
2018-03-03T04:39:19.935Z,97961.36
2018-03-03T04:41:49.688Z,97958.20
2018-03-03T04:44:19.882Z,97956.58
2018-03-03T04:46:49.965Z,97959.20
2018-03-03T04:49:20.126Z,97948.70
2018-03-03T04:51:50.763Z,97939.58
2018-03-03T04:54:20.907Z,97944.44
2018-03-03T04:56:51.263Z,97925.16
2018-03-03T04:59:21.253Z,97934.19
2018-03-03T05:01:51.334Z,97940.28
2018-03-03T05:04:21.210Z,97934.88
2018-03-03T05:06:51.841Z,97938.27
2018-03-03T05:09:21.766Z,97934.14
2018-03-03T05:11:51.926Z,97941.58
2018-03-03T05:14:21.881Z,97917.41
2018-03-03T05:16:52.406Z,97928.77
2018-03-03T05:19:23.625Z,97924.61
2018-03-03T05:21:57.939Z,97928.82
2018-03-03T05:24:28.697Z,97936.86
2018-03-03T05:27:04.182Z,97930.34
2018-03-03T05:29:34.602Z,97921.98
2018-03-03T05:32:07.760Z,97916.72
2018-03-03T05:34:41.674Z,97917.12
2018-03-03T05:37:12.314Z,97920.84
2018-03-03T05:39:42.232Z,97906.20
2018-03-03T05:42:12.091Z,97921.33
2018-03-03T05:44:42.843Z,97894.78
2018-03-03T05:47:12.828Z,97906.05
2018-03-03T05:49:44.731Z,97905.55
2018-03-03T05:52:14.743Z,97907.05
2018-03-03T05:54:45.540Z,97915.83
2018-03-03T05:57:15.376Z,97911.23
2018-03-03T05:59:45.711Z,97918.81
2018-03-03T06:02:16.269Z,97928.43
2018-03-03T06:04:47.590Z,97918.30
2018-03-03T06:07:17.864Z,97940.52
2018-03-03T06:09:48.332Z,97934.72
2018-03-03T06:12:19.565Z,97918.09
2018-03-03T06:14:50.487Z,97927.53
2018-03-03T06:17:20.378Z,97932.50
2018-03-03T06:19:50.551Z,97924.72
2018-03-03T06:22:20.737Z,97924.71
2018-03-03T06:24:51.479Z,97914.73
2018-03-03T06:27:21.458Z,97926.07
2018-03-03T06:29:52.504Z,97917.30
2018-03-03T06:32:22.624Z,97937.89
2018-03-03T06:34:53.022Z,97931.24
2018-03-03T06:37:22.934Z,97933.70
2018-03-03T06:39:53.544Z,97933.80
2018-03-03T06:42:23.401Z,97959.66
2018-03-03T06:44:53.111Z,97944.58
2018-03-03T06:47:23.016Z,97931.77
2018-03-03T06:49:54.823Z,97933.71
2018-03-03T06:52:24.507Z,97934.10
2018-03-03T06:54:54.433Z,97940.39
2018-03-03T06:57:24.140Z,97941.97
2018-03-03T06:59:53.733Z,97939.77
2018-03-03T07:02:23.731Z,97941.13
2018-03-03T07:04:55.216Z,97940.88
2018-03-03T07:07:27.060Z,97932.17
2018-03-03T07:09:57.174Z,97937.35
2018-03-03T07:12:29.252Z,97948.91
2018-03-03T07:15:02.168Z,97916.97
2018-03-03T07:17:33.219Z,97931.05
2018-03-03T07:20:06.620Z,97944.64
2018-03-03T07:22:36.360Z,97945.34
2018-03-03T07:25:07.798Z,97938.50
2018-03-03T07:27:37.526Z,97935.29
2018-03-03T07:30:07.166Z,97948.63
2018-03-03T07:32:37.324Z,97940.54
2018-03-03T07:35:07.819Z,97948.17
2018-03-03T07:37:38.020Z,97954.44
2018-03-03T07:40:08.557Z,97952.19
2018-03-03T07:42:39.265Z,97934.10
2018-03-03T07:45:14.447Z,97948.41
2018-03-03T07:47:44.447Z,97951.77
2018-03-03T07:50:14.196Z,97938.95
2018-03-03T07:52:44.208Z,97940.25
2018-03-03T07:55:14.653Z,97924.43
2018-03-03T07:57:45.791Z,97930.26
2018-03-03T08:00:15.778Z,97936.42
2018-03-03T08:02:45.925Z,97938.59
2018-03-03T08:05:16.057Z,97937.98
2018-03-03T08:07:45.784Z,97928.12
2018-03-03T08:10:15.980Z,97950.25
2018-03-03T08:12:46.867Z,97949.80
2018-03-03T08:15:16.603Z,97947.28
2018-03-03T08:17:47.836Z,97945.63
2018-03-03T08:20:17.661Z,97927.66
2018-03-03T08:22:47.543Z,97938.20
2018-03-03T08:25:17.652Z,97928.91
2018-03-03T08:27:48.885Z,97928.27
2018-03-03T08:30:18.696Z,97949.50
2018-03-03T08:32:48.469Z,97948.38
2018-03-03T08:35:18.124Z,97945.44
2018-03-03T08:37:48.927Z,97946.25
2018-03-03T08:40:19.088Z,97947.50
2018-03-03T08:42:53.962Z,97923.38
2018-03-03T08:45:24.028Z,97941.31
2018-03-03T08:47:53.846Z,97940.42
2018-03-03T08:50:36.547Z,97942.44
2018-03-03T08:53:08.937Z,97936.73
2018-03-03T08:55:42.065Z,97945.33
2018-03-03T08:58:13.822Z,97923.89
2018-03-03T09:00:44.258Z,97945.20
2018-03-03T09:03:14.315Z,97949.09
2018-03-03T09:05:46.584Z,97957.45
2018-03-03T09:08:16.678Z,97955.89
2018-03-03T09:10:49.169Z,97953.16
2018-03-03T09:13:19.141Z,97969.31
2018-03-03T09:15:49.199Z,97951.80
2018-03-03T09:18:20.063Z,97960.20
2018-03-03T09:20:50.648Z,97954.88
2018-03-03T09:23:22.330Z,97952.17
2018-03-03T09:25:52.482Z,97949.28
2018-03-03T09:28:25.927Z,97952.40
2018-03-03T09:30:55.925Z,97946.25
2018-03-03T09:33:26.450Z,97943.86
2018-03-03T09:35:55.925Z,97942.72
2018-03-03T09:38:25.709Z,97930.97
2018-03-03T09:40:55.878Z,97943.67
2018-03-03T09:43:25.890Z,97928.37
2018-03-03T09:45:55.706Z,97934.81
2018-03-03T09:48:26.092Z,97937.70
2018-03-03T09:50:55.783Z,97946.27
2018-03-03T09:53:25.395Z,97935.55
2018-03-03T09:55:56.755Z,97951.42
2018-03-03T09:58:27.585Z,97939.45
2018-03-03T10:00:59.743Z,97943.83
2018-03-03T10:03:30.206Z,97943.70
2018-03-03T10:06:00.559Z,97941.78
2018-03-03T10:08:32.298Z,97952.00
2018-03-03T10:11:03.484Z,97943.92
2018-03-03T10:13:32.957Z,97948.16
2018-03-03T10:16:02.751Z,97939.56
2018-03-03T10:18:34.710Z,97955.32
2018-03-03T10:21:04.624Z,97932.81
2018-03-03T10:23:34.802Z,97954.05
2018-03-03T10:26:04.732Z,97935.10
2018-03-03T10:28:34.840Z,97950.39
2018-03-03T10:31:05.760Z,97939.47
2018-03-03T10:33:39.308Z,97948.55
2018-03-03T10:36:09.824Z,97946.78
2018-03-03T10:38:39.874Z,97941.52
2018-03-03T10:41:09.324Z,97942.44
2018-03-03T10:45:17.602Z,97939.80
2018-03-03T10:47:47.344Z,97943.87
2018-03-03T10:50:17.058Z,97944.98
2018-03-03T10:52:46.774Z,97953.48
2018-03-03T10:55:16.399Z,97952.59
2018-03-03T10:57:47.693Z,97953.98
2018-03-03T11:00:21.622Z,97947.88
2018-03-03T11:02:52.138Z,97946.58
2018-03-03T11:05:21.843Z,97938.35
2018-03-03T11:07:51.289Z,97944.67
2018-03-03T11:10:21.470Z,97923.05
2018-03-03T11:12:51.139Z,97948.36
2018-03-03T11:15:20.901Z,97946.11
2018-03-03T11:17:50.691Z,97934.30
2018-03-03T11:20:20.587Z,97946.88
2018-03-03T11:22:51.022Z,97950.07
2018-03-03T11:25:20.725Z,97938.66
2018-03-03T11:27:50.585Z,97935.88
2018-03-03T11:30:20.331Z,97941.81
2018-03-03T11:32:50.440Z,97929.88
2018-03-03T11:35:21.801Z,97933.19
2018-03-03T11:37:52.212Z,97939.33
2018-03-03T11:40:23.349Z,97944.05
2018-03-03T11:42:56.704Z,97927.97
2018-03-03T11:45:28.341Z,97929.33
2018-03-03T11:47:58.759Z,97934.48
2018-03-03T11:50:30.080Z,97931.58
2018-03-03T11:53:04.744Z,97931.42
2018-03-03T11:55:35.111Z,97917.89
2018-03-03T11:58:08.812Z,97935.97
2018-03-03T12:00:39.142Z,97911.13
2018-03-03T12:03:12.305Z,97921.19
2018-03-03T12:05:42.887Z,97918.30
2018-03-03T12:08:12.726Z,97927.94
2018-03-03T12:10:42.571Z,97922.45
2018-03-03T12:13:14.081Z,97944.92
2018-03-03T12:15:45.035Z,97932.56
2018-03-03T12:18:14.829Z,97921.19
2018-03-03T12:20:44.481Z,97928.34
2018-03-03T12:23:15.162Z,97887.21
2018-03-03T12:25:46.375Z,97901.55
2018-03-03T12:28:16.761Z,97908.52
2018-03-03T12:30:46.245Z,97916.03
2018-03-03T12:33:16.283Z,97903.05
2018-03-03T12:35:46.034Z,97910.54
2018-03-03T12:38:15.530Z,97887.45
2018-03-03T12:40:46.389Z,97907.14
2018-03-03T12:43:16.596Z,97911.04
2018-03-03T12:45:46.599Z,97911.41
2018-03-03T12:48:16.000Z,97900.98
2018-03-03T12:50:46.151Z,97912.83
2018-03-03T12:53:15.719Z,97904.87
2018-03-03T12:55:46.193Z,97888.65
2018-03-03T12:58:16.372Z,97903.17
2018-03-03T13:00:46.442Z,97899.31
2018-03-03T13:03:15.912Z,97900.48
2018-03-03T13:05:45.369Z,97897.82
2018-03-03T13:08:16.748Z,97901.62
2018-03-03T13:10:47.161Z,97910.72
2018-03-03T13:13:18.686Z,97906.22
2018-03-03T13:15:49.596Z,97909.37
2018-03-03T13:18:19.039Z,97902.42
2018-03-03T13:20:49.355Z,97899.72
2018-03-03T13:23:18.970Z,97901.68
2018-03-03T13:25:48.488Z,97895.63
2018-03-03T13:28:18.300Z,97908.95
2018-03-03T13:30:48.652Z,97888.64
2018-03-03T13:33:18.540Z,97895.28
2018-03-03T13:35:48.030Z,97891.45
2018-03-03T13:38:17.842Z,97896.34
2018-03-03T13:40:47.340Z,97892.20
2018-03-03T13:43:16.789Z,97894.14
2018-03-03T13:45:46.656Z,97893.89
2018-03-03T13:48:16.649Z,97896.72
2018-03-03T13:50:47.768Z,97892.38
2018-03-03T13:53:17.641Z,97879.94
2018-03-03T13:55:47.730Z,97893.77
2018-03-03T13:58:17.212Z,97899.98
2018-03-03T14:00:47.984Z,97901.94
2018-03-03T14:03:17.508Z,97898.56
2018-03-03T14:05:47.539Z,97912.56
2018-03-03T14:08:17.915Z,97918.39
2018-03-03T14:10:49.213Z,97929.20
2018-03-03T14:13:18.696Z,97921.66
2018-03-03T14:15:48.538Z,97920.69
2018-03-03T14:18:18.156Z,97910.91
2018-03-03T14:20:48.361Z,97924.63
2018-03-03T14:23:18.231Z,97921.64
2018-03-03T14:25:47.888Z,97925.80
2018-03-03T14:28:17.476Z,97922.55
2018-03-03T14:30:47.271Z,97928.02
2018-03-03T14:33:17.394Z,97929.91
2018-03-03T14:35:47.145Z,97935.61
2018-03-03T14:38:16.880Z,97945.54
2018-03-03T14:40:46.425Z,97941.29
2018-03-03T14:43:15.938Z,97938.98
2018-03-03T14:45:48.855Z,97949.25
2018-03-03T14:48:18.643Z,97931.61
2018-03-03T14:50:53.168Z,97956.23
2018-03-03T14:53:27.114Z,97957.05
2018-03-03T14:56:01.685Z,97967.14
2018-03-03T14:58:36.265Z,97951.36
2018-03-03T15:01:07.411Z,97957.91
2018-03-03T15:03:41.138Z,97946.38
2018-03-03T15:06:14.951Z,97938.51
2018-03-03T15:08:45.339Z,97959.27
2018-03-03T15:11:14.830Z,97975.78
2018-03-03T15:13:45.910Z,97947.79
2018-03-03T15:16:16.494Z,97953.73
2018-03-03T15:18:46.898Z,97947.48
2018-03-03T15:21:17.853Z,97951.64
2018-03-03T15:23:47.785Z,97957.26
2018-03-03T15:26:17.285Z,97961.14
2018-03-03T15:28:51.199Z,97938.58
2018-03-03T15:31:21.381Z,97970.16
2018-03-03T15:33:52.738Z,97958.19
2018-03-03T15:36:22.797Z,97972.66
2018-03-03T15:38:53.563Z,97969.72
2018-03-03T15:41:23.546Z,97972.92
2018-03-03T15:43:53.005Z,97973.67
2018-03-03T15:46:23.735Z,97981.33
2018-03-03T15:48:54.579Z,97973.95
2018-03-03T15:51:24.123Z,97981.73
2018-03-03T15:53:53.598Z,97976.34
2018-03-03T15:56:23.388Z,97990.34
2018-03-03T15:58:54.888Z,97987.79
2018-03-03T16:01:24.845Z,97986.47
2018-03-03T16:03:56.180Z,97986.36
2018-03-03T16:06:26.564Z,97980.09
2018-03-03T16:08:56.302Z,97989.09
2018-03-03T16:11:26.625Z,97992.12
2018-03-03T16:13:56.535Z,97997.00
2018-03-03T16:16:26.823Z,98010.03
2018-03-03T16:18:56.899Z,97999.53
2018-03-03T16:21:27.085Z,97975.17
2018-03-03T16:23:57.126Z,98022.27
2018-03-03T16:26:26.984Z,98018.76
2018-03-03T16:28:56.405Z,98024.09
2018-03-03T16:31:26.475Z,98029.53
2018-03-03T16:33:56.530Z,98038.13
2018-03-03T16:36:26.841Z,98027.67
2018-03-03T16:38:59.555Z,98041.69
2018-03-03T16:41:29.593Z,98033.34
2018-03-03T16:43:59.768Z,98039.06
2018-03-03T16:46:29.704Z,98036.23
2018-03-03T16:49:03.750Z,98039.25
2018-03-03T16:51:33.460Z,98040.45
2018-03-03T16:54:04.198Z,98042.80
2018-03-03T16:56:35.393Z,98059.23
2018-03-03T16:59:06.443Z,98063.39
2018-03-03T17:01:36.073Z,98055.38
2018-03-03T17:04:07.295Z,98049.08
2018-03-03T17:06:37.887Z,98059.17
2018-03-03T17:09:09.360Z,98058.87
2018-03-03T17:11:38.883Z,98057.95
2018-03-03T17:14:10.466Z,98063.52
2018-03-03T17:16:40.213Z,98066.20
2018-03-03T17:19:10.293Z,98067.55
2018-03-03T17:21:44.342Z,98095.48
2018-03-03T17:24:14.090Z,98054.23
2018-03-03T17:26:45.220Z,98065.27
2018-03-03T17:29:14.675Z,98083.51
2018-03-03T17:31:46.520Z,98073.39
2018-03-03T17:34:18.380Z,98075.66
2018-03-03T17:36:47.911Z,98084.42
2018-03-03T17:39:17.591Z,98083.75
2018-03-03T17:41:47.395Z,98071.36
2018-03-03T17:44:17.644Z,98093.64
2018-03-03T17:46:47.293Z,98094.56
2018-03-03T17:49:17.232Z,98090.69
2018-03-03T17:51:49.282Z,98092.48
2018-03-03T17:54:18.873Z,98088.15
2018-03-03T17:56:48.754Z,98100.05
2018-03-03T17:59:18.251Z,98098.47
2018-03-03T18:01:47.933Z,98097.95
2018-03-03T18:04:17.860Z,98097.70
2018-03-03T18:06:47.502Z,98099.25
2018-03-03T18:09:17.111Z,98109.94
2018-03-03T18:11:56.824Z,98101.19
2018-03-03T18:14:27.030Z,98105.96
2018-03-03T18:16:56.549Z,98106.14
2018-03-03T18:19:28.809Z,98108.41
2018-03-03T18:21:58.408Z,98105.23
2018-03-03T18:24:35.192Z,98103.77
2018-03-03T18:27:04.917Z,98108.36
2018-03-03T18:29:34.669Z,98105.31
2018-03-03T18:32:04.565Z,98088.88
2018-03-03T18:34:34.160Z,98099.78
2018-03-03T18:37:03.696Z,98096.35
2018-03-03T18:39:33.674Z,98097.30
2018-03-03T18:42:03.209Z,98090.50
2018-03-03T18:44:32.786Z,98080.55
2018-03-03T18:47:03.624Z,98078.48
2018-03-03T18:49:33.063Z,98099.05
2018-03-03T18:52:04.724Z,98099.45
2018-03-03T18:54:35.922Z,98097.89
2018-03-03T18:57:07.970Z,98096.02
2018-03-03T18:59:37.849Z,98095.73
2018-03-03T19:02:07.896Z,98098.55
2018-03-03T19:04:37.705Z,98097.87
2018-03-03T19:07:07.600Z,98093.66
2018-03-03T19:09:37.956Z,98094.61
2018-03-03T19:12:07.871Z,98094.87
2018-03-03T19:14:37.640Z,98081.90
2018-03-03T19:17:07.619Z,98096.06
2018-03-03T19:19:37.431Z,98093.67
2018-03-03T19:22:06.918Z,98080.59
2018-03-03T19:24:37.140Z,98087.22
2018-03-03T19:27:07.047Z,98092.69
2018-03-03T19:30:39.421Z,98102.77
2018-03-03T19:33:09.146Z,98098.16
2018-03-03T19:35:39.053Z,98101.38
2018-03-03T19:38:09.437Z,98104.33
2018-03-03T19:40:39.123Z,98102.34
2018-03-03T19:43:08.586Z,98102.93
2018-03-03T19:45:38.135Z,98109.94
2018-03-03T19:48:07.635Z,98109.58
2018-03-03T19:50:37.178Z,98107.59
2018-03-03T19:53:07.210Z,98108.86
2018-03-03T19:55:36.670Z,98115.14
2018-03-03T19:58:06.417Z,98096.42
2018-03-03T20:00:35.957Z,98116.94
2018-03-03T20:03:05.512Z,98120.82
2018-03-03T20:05:35.019Z,98128.18
2018-03-03T20:08:05.114Z,98125.40
2018-03-03T20:10:34.715Z,98128.73
2018-03-03T20:13:05.663Z,98122.98
2018-03-03T20:15:35.510Z,98138.12
2018-03-03T20:18:05.529Z,98128.13
2018-03-03T20:20:35.422Z,98136.27
2018-03-03T20:23:05.099Z,98133.53
2018-03-03T20:25:34.785Z,98157.66
2018-03-03T20:28:04.908Z,98125.01
2018-03-03T20:30:34.526Z,98141.86
2018-03-03T20:33:04.635Z,98137.61
2018-03-03T20:35:34.786Z,98142.51
2018-03-03T20:38:04.466Z,98142.13
2018-03-03T20:40:34.642Z,98144.48
2018-03-03T20:43:26.986Z,98153.58
2018-03-03T20:45:56.952Z,98138.66
2018-03-03T20:48:26.938Z,98145.33
2018-03-03T20:50:56.708Z,98141.61
2018-03-03T20:53:26.321Z,98137.48
2018-03-03T20:55:55.986Z,98138.70
2018-03-03T20:58:26.012Z,98138.09
2018-03-03T21:00:55.876Z,98113.58
2018-03-03T21:03:25.566Z,98129.02
2018-03-03T21:05:55.196Z,98131.91
2018-03-03T21:08:24.947Z,98137.67
2018-03-03T21:11:02.255Z,98134.83
2018-03-03T21:13:33.538Z,98135.84
2018-03-03T21:16:04.752Z,98135.67
2018-03-03T21:18:40.204Z,98139.66
2018-03-03T21:21:09.831Z,98136.05
2018-03-03T21:23:40.270Z,98141.78
2018-03-03T21:26:10.238Z,98133.90
2018-03-03T21:28:41.279Z,98139.66
2018-03-03T21:31:10.944Z,98136.06
2018-03-03T21:33:40.510Z,98140.83
2018-03-03T21:36:10.171Z,98134.42
2018-03-03T21:38:41.260Z,98138.00
2018-03-03T21:41:11.071Z,98140.33
2018-03-03T21:43:40.809Z,98131.55
2018-03-03T21:46:10.777Z,98134.47
2018-03-03T21:48:41.223Z,98143.44
2018-03-03T21:51:11.424Z,98138.60
2018-03-03T21:53:41.364Z,98148.68
2018-03-03T21:56:10.907Z,98142.00
2018-03-03T21:58:40.404Z,98141.64
2018-03-03T22:01:10.035Z,98135.42
2018-03-03T22:03:40.188Z,98129.78
2018-03-03T22:06:10.242Z,98129.17
2018-03-03T22:08:41.190Z,98129.00
2018-03-03T22:11:10.962Z,98128.69
2018-03-03T22:13:40.506Z,98132.20
2018-03-03T22:16:10.830Z,98124.30
2018-03-03T22:18:40.306Z,98128.57
2018-03-03T22:21:09.914Z,98130.05
2018-03-03T22:23:40.034Z,98129.82
2018-03-03T22:26:10.128Z,98128.80
2018-03-03T22:28:40.031Z,98128.36
2018-03-03T22:31:09.960Z,98121.87
2018-03-03T22:33:39.859Z,98132.02
2018-03-03T22:36:09.514Z,98125.52
2018-03-03T22:38:39.523Z,98134.80
2018-03-03T22:41:09.242Z,98137.12
2018-03-03T22:43:39.281Z,98131.47
2018-03-03T22:46:09.462Z,98133.04
2018-03-03T22:48:38.966Z,98132.52
2018-03-03T22:51:08.846Z,98130.62
2018-03-03T22:53:38.942Z,98129.87
2018-03-03T22:56:08.557Z,98110.82
2018-03-03T22:58:38.630Z,98128.38
2018-03-03T23:01:09.467Z,98130.34
2018-03-03T23:03:39.400Z,98128.34
2018-03-03T23:06:08.964Z,98129.98
2018-03-03T23:08:38.864Z,98131.35
2018-03-03T23:11:08.628Z,98148.63
2018-03-03T23:13:38.730Z,98152.33
2018-03-03T23:16:08.630Z,98155.64
2018-03-03T23:18:38.532Z,98159.94
2018-03-03T23:21:08.099Z,98159.67
2018-03-03T23:23:38.092Z,98168.34
2018-03-03T23:26:08.673Z,98148.37
2018-03-03T23:28:38.299Z,98161.52
2018-03-03T23:31:08.273Z,98176.64
2018-03-03T23:33:38.394Z,98142.16
2018-03-03T23:36:07.871Z,98158.00
2018-03-03T23:38:37.690Z,98153.08
2018-03-03T23:41:07.253Z,98158.43
2018-03-03T23:43:36.686Z,98164.61
2018-03-03T23:46:06.706Z,98159.23
2018-03-03T23:48:36.477Z,98155.22
2018-03-03T23:51:06.558Z,98163.83
2018-03-03T23:53:37.258Z,98160.38
2018-03-03T23:56:08.577Z,98165.95
2018-03-03T23:58:38.915Z,98173.75
